createdAt,value
2019-04-14T00:00:34.135Z,80.18
2019-04-14T00:01:34.798Z,80.27
2019-04-14T00:02:34.086Z,80.84
2019-04-14T00:03:34.734Z,80.08
2019-04-14T00:04:34.048Z,80.46
2019-04-14T00:05:35.472Z,80.46
2019-04-14T00:06:35.076Z,80.37
2019-04-14T00:07:34.085Z,80.27
2019-04-14T00:08:34.829Z,80.75
2019-04-14T00:09:33.932Z,80.94
2019-04-14T00:10:33.912Z,80.75
2019-04-14T00:11:34.402Z,81.04
2019-04-14T00:12:33.865Z,81.23
2019-04-14T00:13:34.899Z,81.13
2019-04-14T00:14:33.825Z,81.09
2019-04-14T00:15:39.523Z,81.60
2019-04-14T00:16:33.779Z,81.41
2019-04-14T00:17:34.820Z,81.18
2019-04-14T00:18:33.757Z,81.75
2019-04-14T00:19:34.669Z,81.75
2019-04-14T00:20:33.740Z,81.79
2019-04-14T00:21:34.620Z,82.17
2019-04-14T00:22:33.688Z,81.85
2019-04-14T00:23:34.745Z,81.88
2019-04-14T00:24:33.623Z,82.42
2019-04-14T00:25:34.776Z,82.46
2019-04-14T00:26:33.660Z,82.17
2019-04-14T00:27:34.550Z,81.94
2019-04-14T00:28:33.633Z,82.55
2019-04-14T00:29:33.499Z,82.60
2019-04-14T00:30:33.795Z,83.08
2019-04-14T00:31:33.455Z,83.17
2019-04-14T00:32:33.484Z,83.27
2019-04-14T00:33:34.518Z,83.08
2019-04-14T00:34:33.397Z,83.65
2019-04-14T00:35:34.199Z,83.55
2019-04-14T00:36:33.351Z,83.27
2019-04-14T00:37:33.697Z,84.03
2019-04-14T00:38:34.487Z,84.12
2019-04-14T00:39:33.632Z,84.31
2019-04-14T00:40:34.591Z,84.50
2019-04-14T00:41:42.452Z,84.78
2019-04-14T00:42:34.168Z,84.50
2019-04-14T00:43:33.187Z,84.41
2019-04-14T00:44:34.028Z,84.31
2019-04-14T00:45:41.537Z,84.50
2019-04-14T00:46:34.158Z,84.78
2019-04-14T00:47:33.211Z,84.78
2019-04-14T00:48:34.104Z,85.07
2019-04-14T00:49:33.303Z,84.88
2019-04-14T00:50:34.097Z,85.07
2019-04-14T00:51:33.137Z,85.55
2019-04-14T00:52:34.074Z,85.17
2019-04-14T00:53:33.886Z,85.83
2019-04-14T00:54:32.949Z,85.83
2019-04-14T00:55:33.570Z,85.64
2019-04-14T00:56:32.901Z,85.83
2019-04-14T00:57:33.341Z,86.21
2019-04-14T00:58:32.855Z,86.68
2019-04-14T00:59:33.382Z,86.49
2019-04-14T01:00:33.928Z,86.49
2019-04-14T01:01:33.031Z,86.78
2019-04-14T01:02:33.913Z,86.87
2019-04-14T01:03:33.048Z,87.35
2019-04-14T01:04:33.766Z,87.45
2019-04-14T01:05:34.448Z,88.20
2019-04-14T01:06:33.580Z,88.29
2019-04-14T01:07:32.786Z,88.29
2019-04-14T01:08:33.520Z,88.58
2019-04-14T01:09:32.713Z,88.01
2019-04-14T01:10:32.594Z,88.39
2019-04-14T01:11:33.541Z,88.39
2019-04-14T01:12:32.547Z,88.58
2019-04-14T01:13:33.270Z,88.96
2019-04-14T01:14:32.505Z,88.77
2019-04-14T01:15:44.808Z,89.25
2019-04-14T01:16:32.462Z,89.62
2019-04-14T01:17:33.071Z,90.00
2019-04-14T01:18:32.416Z,90.00
2019-04-14T01:19:33.105Z,89.81
2019-04-14T01:20:32.375Z,90.29
2019-04-14T01:21:32.791Z,90.57
2019-04-14T01:22:33.470Z,90.48
2019-04-14T01:23:32.664Z,90.76
2019-04-14T01:24:33.555Z,90.67
2019-04-14T01:25:32.479Z,91.61
2019-04-14T01:26:33.195Z,90.95
2019-04-14T01:27:32.212Z,91.99
2019-04-14T01:28:33.019Z,91.52
2019-04-14T01:29:32.176Z,91.52
2019-04-14T01:30:32.699Z,92.18
2019-04-14T01:31:32.130Z,92.28
2019-04-14T01:32:32.604Z,92.28
2019-04-14T01:33:32.090Z,92.47
2019-04-14T01:34:32.452Z,92.66
2019-04-14T01:35:32.041Z,93.23
2019-04-14T01:36:32.080Z,92.85
2019-04-14T01:37:33.250Z,93.04
2019-04-14T01:38:32.053Z,93.41
2019-04-14T01:39:32.873Z,93.99
2019-04-14T01:40:31.928Z,93.70
2019-04-14T01:41:32.506Z,94.27
2019-04-14T01:42:31.888Z,94.18
2019-04-14T01:43:32.183Z,94.65
2019-04-14T01:44:32.974Z,94.46
2019-04-14T01:45:31.820Z,94.37
2019-04-14T01:46:33.976Z,95.12
2019-04-14T01:47:31.770Z,94.93
2019-04-14T01:48:32.455Z,95.41
2019-04-14T01:49:31.746Z,95.12
2019-04-14T01:50:32.279Z,95.88
2019-04-14T01:51:31.686Z,95.69
2019-04-14T01:52:31.994Z,95.31
2019-04-14T01:53:31.641Z,95.22
2019-04-14T01:54:32.344Z,95.79
2019-04-14T01:55:31.597Z,95.79
2019-04-14T01:56:31.969Z,95.69
2019-04-14T01:57:32.804Z,95.88
2019-04-14T01:58:31.796Z,96.36
2019-04-14T01:59:32.582Z,96.83
2019-04-14T02:00:31.657Z,96.26
2019-04-14T02:01:32.471Z,96.64
2019-04-14T02:02:31.553Z,96.64
2019-04-14T02:03:32.288Z,96.64
2019-04-14T02:04:31.398Z,97.02
2019-04-14T02:05:32.090Z,97.40
2019-04-14T02:06:31.369Z,97.02
2019-04-14T02:07:31.907Z,97.40
2019-04-14T02:08:31.305Z,97.02
2019-04-14T02:09:31.629Z,97.69
2019-04-14T02:10:32.573Z,97.78
2019-04-14T02:11:31.405Z,97.21
2019-04-14T02:12:32.348Z,98.35
2019-04-14T02:13:31.200Z,99.01
2019-04-14T02:14:32.251Z,99.30
2019-04-14T02:15:31.149Z,99.39
2019-04-14T02:16:39.744Z,99.99
2019-04-14T02:17:31.129Z,99.99
2019-04-14T02:18:31.850Z,99.99
2019-04-14T02:19:31.063Z,99.99
2019-04-14T02:20:31.900Z,99.99
2019-04-14T02:21:32.304Z,99.99
2019-04-14T02:22:31.306Z,99.99
2019-04-14T02:23:32.201Z,99.99
2019-04-14T02:24:31.061Z,99.99
2019-04-14T02:25:31.780Z,99.99
2019-04-14T02:26:31.030Z,99.99
2019-04-14T02:27:31.727Z,99.99
2019-04-14T02:28:31.042Z,99.99
2019-04-14T02:29:31.877Z,99.99
2019-04-14T02:30:38.864Z,99.99
2019-04-14T02:31:53.087Z,99.99
2019-04-14T02:32:57.492Z,99.99
2019-04-14T02:33:58.769Z,99.99
2019-04-14T02:35:05.581Z,99.99
2019-04-14T02:37:08.076Z,99.99
2019-04-14T02:38:09.450Z,99.99
2019-04-14T02:38:54.894Z,99.99
2019-04-14T02:40:00.430Z,99.99
2019-04-14T02:42:58.131Z,99.99
2019-04-14T02:44:15.837Z,99.99
2019-04-14T02:45:57.602Z,99.99
2019-04-14T02:46:53.107Z,99.99
2019-04-14T02:48:05.706Z,99.99
2019-04-14T02:48:58.513Z,99.99
2019-04-14T02:49:56.121Z,99.99
2019-04-14T02:50:59.918Z,99.99
2019-04-14T02:52:00.364Z,99.99
2019-04-14T02:53:01.887Z,99.99
2019-04-14T02:53:59.251Z,99.99
2019-04-14T02:55:59.496Z,99.99
2019-04-14T02:57:52.127Z,99.99
2019-04-14T02:59:58.474Z,99.99
2019-04-14T03:01:01.789Z,99.99
2019-04-14T03:02:19.656Z,99.99
2019-04-14T03:02:52.150Z,99.99
2019-04-14T03:03:56.367Z,99.99
2019-04-14T03:04:56.782Z,99.99
2019-04-14T03:06:00.180Z,99.99
2019-04-14T03:07:02.587Z,99.99
2019-04-14T03:07:59.925Z,99.99
2019-04-14T03:09:04.611Z,99.99
2019-04-14T03:10:53.705Z,99.99
2019-04-14T03:11:51.832Z,99.99
2019-04-14T03:12:57.941Z,99.99
2019-04-14T03:14:03.222Z,99.99
2019-04-14T03:14:55.630Z,99.99
2019-04-14T03:15:58.926Z,99.99
2019-04-14T03:17:10.814Z,99.99
2019-04-14T03:18:18.701Z,99.99
2019-04-14T03:18:50.357Z,99.99
2019-04-14T03:20:55.061Z,99.99
2019-04-14T03:22:03.201Z,99.99
2019-04-14T03:22:55.896Z,99.99
2019-04-14T03:24:00.596Z,99.99
2019-04-14T03:24:44.429Z,99.99
2019-04-14T03:25:55.271Z,99.99
2019-04-14T03:26:56.140Z,99.99
2019-04-14T03:27:56.821Z,99.99
2019-04-14T03:29:08.796Z,99.99
2019-04-14T03:29:58.335Z,99.99
2019-04-14T03:31:09.895Z,99.99
2019-04-14T03:34:30.326Z,99.99
2019-04-14T03:35:09.817Z,99.99
2019-04-14T03:36:26.848Z,99.99
2019-04-14T03:39:00.593Z,99.99
2019-04-14T03:39:52.167Z,99.99
2019-04-14T03:41:06.118Z,99.99
2019-04-14T03:41:52.717Z,99.99
2019-04-14T03:43:01.600Z,99.99
2019-04-14T03:43:50.796Z,99.99
2019-04-14T03:47:03.280Z,99.99
2019-04-14T03:48:21.850Z,99.99
2019-04-14T03:48:57.966Z,99.99
2019-04-14T03:49:52.887Z,99.99
2019-04-14T03:50:56.125Z,99.99
2019-04-14T03:51:59.619Z,99.99
2019-04-14T03:52:56.167Z,99.99
2019-04-14T03:53:54.498Z,99.99
2019-04-14T03:54:44.045Z,99.99
2019-04-14T03:55:37.049Z,99.99
2019-04-14T03:56:29.210Z,99.99
2019-04-14T03:57:30.069Z,99.99
2019-04-14T03:58:29.271Z,99.99
2019-04-14T03:59:28.827Z,99.99
2019-04-14T04:00:29.197Z,99.99
2019-04-14T04:01:28.797Z,99.99
2019-04-14T04:02:29.424Z,99.99
2019-04-14T04:03:28.736Z,99.99
2019-04-14T04:04:29.422Z,99.99
2019-04-14T04:05:28.687Z,99.99
2019-04-14T04:06:29.226Z,99.99
2019-04-14T04:07:28.644Z,99.99
2019-04-14T04:08:29.113Z,99.99
2019-04-14T04:09:28.597Z,99.99
2019-04-14T04:10:29.230Z,99.99
2019-04-14T04:11:28.555Z,99.99
2019-04-14T04:12:29.269Z,99.99
2019-04-14T04:13:28.537Z,99.99
2019-04-14T04:14:29.186Z,99.99
2019-04-14T04:15:28.483Z,99.99
2019-04-14T04:16:29.101Z,99.99
2019-04-14T04:17:29.696Z,99.99
2019-04-14T04:18:28.757Z,99.99
2019-04-14T04:19:29.422Z,99.99
2019-04-14T04:20:28.560Z,99.99
2019-04-14T04:21:29.126Z,99.99
2019-04-14T04:22:28.307Z,99.99
2019-04-14T04:23:29.201Z,99.99
2019-04-14T04:24:30.602Z,99.99
2019-04-14T04:25:29.002Z,99.99
2019-04-14T04:26:28.214Z,99.99
2019-04-14T04:27:28.771Z,99.99
2019-04-14T04:28:28.170Z,99.99
2019-04-14T04:29:28.811Z,99.99
2019-04-14T04:30:28.132Z,99.99
2019-04-14T04:31:28.583Z,99.99
2019-04-14T04:32:28.080Z,99.99
2019-04-14T04:33:28.451Z,99.99
2019-04-14T04:34:28.040Z,99.99
2019-04-14T04:35:28.231Z,99.99
2019-04-14T04:36:29.112Z,99.99
2019-04-14T04:37:28.001Z,99.99
2019-04-14T04:38:28.785Z,99.99
2019-04-14T04:39:28.058Z,99.99
2019-04-14T04:40:28.985Z,99.99
2019-04-14T04:41:27.882Z,99.99
2019-04-14T04:42:28.682Z,99.99
2019-04-14T04:43:27.831Z,99.99
2019-04-14T04:44:29.053Z,99.99
2019-04-14T04:45:28.025Z,99.99
2019-04-14T04:46:28.778Z,99.99
2019-04-14T04:47:27.739Z,99.99
2019-04-14T04:48:28.516Z,99.99
2019-04-14T04:49:29.704Z,99.99
2019-04-14T04:50:28.263Z,99.99
2019-04-14T04:51:28.914Z,99.99
2019-04-14T04:52:28.077Z,99.99
2019-04-14T04:53:28.707Z,99.99
2019-04-14T04:54:27.906Z,99.99
2019-04-14T04:55:28.623Z,99.99
2019-04-14T04:56:27.627Z,99.99
2019-04-14T04:57:28.527Z,99.99
2019-04-14T04:58:28.391Z,99.99
2019-04-14T04:59:27.789Z,99.99
2019-04-14T05:00:27.675Z,99.99
2019-04-14T05:01:27.466Z,99.99
2019-04-14T05:02:27.406Z,99.99
2019-04-14T05:03:27.642Z,99.99
2019-04-14T05:04:28.570Z,99.99
2019-04-14T05:05:27.505Z,99.99
2019-04-14T05:06:28.657Z,99.99
2019-04-14T05:07:27.360Z,99.99
2019-04-14T05:08:28.323Z,99.99
2019-04-14T05:09:27.548Z,99.99
2019-04-14T05:10:27.225Z,99.99
2019-04-14T05:11:27.390Z,99.99
2019-04-14T05:12:28.296Z,99.99
2019-04-14T05:13:27.163Z,99.99
2019-04-14T05:14:28.302Z,99.99
2019-04-14T05:15:27.131Z,99.99
2019-04-14T05:16:28.141Z,99.99
2019-04-14T05:17:27.719Z,99.99
2019-04-14T05:18:27.047Z,99.99
2019-04-14T05:19:31.829Z,99.99
2019-04-14T05:20:27.145Z,99.99
2019-04-14T05:21:27.756Z,99.99
2019-04-14T05:22:26.958Z,99.99
2019-04-14T05:23:27.813Z,99.99
2019-04-14T05:24:26.936Z,99.99
2019-04-14T05:25:27.569Z,99.99
2019-04-14T05:26:26.863Z,99.99
2019-04-14T05:27:27.638Z,99.99
2019-04-14T05:28:26.847Z,99.99
2019-04-14T05:29:27.548Z,99.99
2019-04-14T05:30:26.773Z,99.99
2019-04-14T05:31:28.748Z,99.99
2019-04-14T05:32:26.729Z,99.99
2019-04-14T05:33:27.142Z,99.99
2019-04-14T05:34:26.693Z,99.99
2019-04-14T05:35:27.022Z,99.99
2019-04-14T05:36:26.644Z,99.99
2019-04-14T05:37:26.901Z,99.99
2019-04-14T05:38:29.434Z,99.99
2019-04-14T05:39:26.587Z,99.99
2019-04-14T05:40:27.759Z,99.99
2019-04-14T05:41:26.577Z,99.99
2019-04-14T05:42:27.497Z,99.99
2019-04-14T05:43:36.732Z,99.99
2019-04-14T05:44:27.503Z,99.99
2019-04-14T05:45:26.437Z,99.99
2019-04-14T05:46:27.349Z,99.99
2019-04-14T05:47:26.391Z,99.99
2019-04-14T05:48:27.227Z,99.99
2019-04-14T05:49:34.858Z,99.99
2019-04-14T05:50:27.215Z,99.99
2019-04-14T05:51:26.484Z,99.99
2019-04-14T05:52:27.309Z,99.99
2019-04-14T05:53:26.340Z,99.99
2019-04-14T05:54:27.401Z,99.99
2019-04-14T05:55:26.353Z,99.99
2019-04-14T05:56:27.394Z,99.99
2019-04-14T05:57:26.361Z,99.99
2019-04-14T05:58:27.418Z,99.99
2019-04-14T05:59:26.477Z,99.99
2019-04-14T06:00:26.103Z,99.99
2019-04-14T06:01:27.056Z,99.99
2019-04-14T06:02:27.876Z,99.99
2019-04-14T06:03:26.034Z,99.99
2019-04-14T06:04:26.465Z,99.99
2019-04-14T06:05:25.988Z,99.99
2019-04-14T06:06:25.973Z,99.99
2019-04-14T06:07:25.952Z,99.99
2019-04-14T06:08:25.990Z,99.99
2019-04-14T06:09:25.909Z,99.99
2019-04-14T06:10:25.881Z,99.99
2019-04-14T06:11:25.856Z,99.99
2019-04-14T06:12:25.842Z,99.99
2019-04-14T06:13:25.814Z,99.99
2019-04-14T06:14:25.788Z,99.99
2019-04-14T06:15:25.763Z,99.99
2019-04-14T06:16:25.744Z,99.99
2019-04-14T06:17:25.721Z,99.99
2019-04-14T06:18:25.703Z,99.99
2019-04-14T06:19:36.471Z,99.99
2019-04-14T06:20:25.656Z,99.99
2019-04-14T06:21:25.635Z,99.99
2019-04-14T06:22:25.609Z,99.99
2019-04-14T06:23:25.586Z,99.99
2019-04-14T06:24:25.566Z,99.99
2019-04-14T06:25:25.571Z,99.99
2019-04-14T06:26:25.520Z,99.99
2019-04-14T06:27:25.499Z,99.99
2019-04-14T06:28:25.491Z,99.99
2019-04-14T06:29:25.458Z,99.99
2019-04-14T06:30:25.432Z,99.99
2019-04-14T06:31:25.410Z,99.99
2019-04-14T06:32:25.386Z,99.99
2019-04-14T06:33:25.364Z,99.99
2019-04-14T06:34:25.360Z,99.99
2019-04-14T06:35:25.320Z,99.99
2019-04-14T06:36:25.297Z,99.99
2019-04-14T06:37:25.279Z,99.99
2019-04-14T06:38:25.252Z,99.99
2019-04-14T06:39:25.234Z,99.99
2019-04-14T06:40:25.215Z,99.99
2019-04-14T06:41:25.187Z,99.99
2019-04-14T06:42:25.166Z,99.99
2019-04-14T06:43:25.143Z,99.99
2019-04-14T06:44:25.120Z,99.99
2019-04-14T06:45:25.094Z,99.99
2019-04-14T06:46:25.076Z,99.99
2019-04-14T06:47:25.050Z,99.99
2019-04-14T06:48:25.027Z,99.99
2019-04-14T06:49:25.006Z,99.99
2019-04-14T06:50:24.993Z,99.99
2019-04-14T06:51:24.972Z,99.99
2019-04-14T06:52:24.943Z,99.99
2019-04-14T06:53:24.926Z,99.99
2019-04-14T06:54:24.897Z,99.99
2019-04-14T06:55:24.877Z,99.99
2019-04-14T06:56:24.856Z,99.99
2019-04-14T06:57:24.830Z,99.99
2019-04-14T06:58:24.806Z,99.99
2019-04-14T06:59:24.784Z,99.99
2019-04-14T07:00:24.767Z,99.99
2019-04-14T07:01:24.740Z,99.99
2019-04-14T07:02:24.726Z,99.99
2019-04-14T07:03:24.698Z,99.99
2019-04-14T07:04:24.676Z,99.99
2019-04-14T07:05:24.654Z,99.99
2019-04-14T07:06:24.630Z,99.99
2019-04-14T07:07:24.608Z,99.99
2019-04-14T07:08:24.588Z,99.99
2019-04-14T07:09:24.571Z,99.99
2019-04-14T07:10:24.547Z,99.99
2019-04-14T07:11:24.521Z,99.99
2019-04-14T07:12:24.500Z,99.99
2019-04-14T07:13:24.492Z,99.99
2019-04-14T07:14:24.454Z,99.99
2019-04-14T07:15:24.428Z,99.99
2019-04-14T07:16:24.409Z,99.99
2019-04-14T07:17:24.388Z,99.99
2019-04-14T07:18:24.367Z,99.99
2019-04-14T07:19:24.348Z,99.99
2019-04-14T07:20:24.318Z,99.99
2019-04-14T07:21:24.299Z,99.99
2019-04-14T07:22:24.281Z,99.99
2019-04-14T07:23:24.256Z,99.99
2019-04-14T07:24:24.236Z,99.99
2019-04-14T07:25:24.217Z,99.99
2019-04-14T07:26:24.185Z,99.99
2019-04-14T07:27:24.161Z,99.99
2019-04-14T07:28:24.141Z,99.99
2019-04-14T07:29:24.125Z,99.99
2019-04-14T07:30:24.100Z,99.99
2019-04-14T07:31:24.080Z,99.99
2019-04-14T07:32:24.052Z,99.99
2019-04-14T07:33:24.033Z,99.99
2019-04-14T07:34:24.007Z,99.99
2019-04-14T07:35:23.984Z,99.99
2019-04-14T07:36:23.964Z,99.99
2019-04-14T07:37:23.946Z,99.99
2019-04-14T07:38:23.930Z,99.99
2019-04-14T07:39:23.899Z,99.99
2019-04-14T07:40:23.881Z,99.99
2019-04-14T07:41:23.859Z,99.99
2019-04-14T07:42:23.832Z,99.99
2019-04-14T07:43:23.811Z,99.99
2019-04-14T07:44:23.789Z,99.99
2019-04-14T07:45:23.766Z,99.99
2019-04-14T07:46:23.747Z,99.99
2019-04-14T07:47:23.727Z,99.99
2019-04-14T07:48:23.700Z,99.99
2019-04-14T07:49:23.681Z,99.99
2019-04-14T07:50:23.661Z,99.99
2019-04-14T07:51:23.647Z,99.99
2019-04-14T07:52:23.615Z,99.99
2019-04-14T07:53:23.593Z,99.99
2019-04-14T07:54:23.571Z,99.99
2019-04-14T07:55:23.551Z,99.99
2019-04-14T07:56:23.537Z,99.99
2019-04-14T07:57:23.502Z,99.99
2019-04-14T07:58:23.483Z,99.99
2019-04-14T07:59:23.462Z,99.99
2019-04-14T08:00:23.439Z,99.99
2019-04-14T08:01:25.833Z,99.99
2019-04-14T08:02:23.393Z,99.99
2019-04-14T08:03:23.371Z,99.99
2019-04-14T08:04:23.348Z,99.99
2019-04-14T08:05:23.328Z,99.99
2019-04-14T08:06:23.313Z,99.99
2019-04-14T08:07:23.283Z,99.99
2019-04-14T08:08:23.264Z,99.99
2019-04-14T08:09:23.246Z,99.99
2019-04-14T08:10:23.221Z,99.99
2019-04-14T08:11:23.195Z,99.99
2019-04-14T08:12:23.176Z,99.99
2019-04-14T08:13:23.159Z,99.99
2019-04-14T08:14:23.139Z,99.99
2019-04-14T08:15:23.112Z,99.99
2019-04-14T08:16:23.091Z,99.99
2019-04-14T08:17:23.073Z,99.99
2019-04-14T08:18:23.050Z,99.99
2019-04-14T08:19:23.023Z,99.99
2019-04-14T08:20:27.711Z,99.99
2019-04-14T08:21:22.983Z,99.99
2019-04-14T08:22:22.967Z,99.99
2019-04-14T08:23:22.936Z,99.99
2019-04-14T08:24:22.918Z,99.99
2019-04-14T08:25:22.893Z,99.99
2019-04-14T08:26:22.874Z,99.99
2019-04-14T08:27:22.850Z,99.99
2019-04-14T08:28:22.827Z,99.99
2019-04-14T08:29:22.807Z,99.99
2019-04-14T08:30:22.786Z,99.99
2019-04-14T08:31:22.776Z,99.99
2019-04-14T08:32:22.741Z,99.99
2019-04-14T08:33:22.727Z,99.99
2019-04-14T08:34:22.696Z,99.99
2019-04-14T08:35:22.739Z,99.99
2019-04-14T08:36:22.655Z,99.99
2019-04-14T08:37:22.639Z,99.99
2019-04-14T08:38:22.612Z,99.99
2019-04-14T08:39:22.589Z,99.99
2019-04-14T08:40:22.569Z,99.99
2019-04-14T08:41:22.545Z,99.99
2019-04-14T08:42:22.525Z,99.99
2019-04-14T08:43:22.505Z,99.99
2019-04-14T08:44:22.489Z,99.99
2019-04-14T08:45:22.461Z,99.99
2019-04-14T08:46:22.500Z,99.99
2019-04-14T08:47:22.422Z,99.99
2019-04-14T08:48:22.395Z,99.99
2019-04-14T08:49:22.375Z,99.99
2019-04-14T08:50:22.351Z,99.99
2019-04-14T08:51:22.335Z,99.99
2019-04-14T08:52:24.122Z,99.99
2019-04-14T08:53:22.283Z,99.99
2019-04-14T08:54:22.270Z,99.99
2019-04-14T08:55:22.244Z,99.99
2019-04-14T08:56:22.225Z,99.99
2019-04-14T08:57:22.204Z,99.99
2019-04-14T08:58:22.183Z,99.99
2019-04-14T08:59:22.162Z,99.99
2019-04-14T09:00:22.139Z,99.99
2019-04-14T09:01:22.119Z,99.99
2019-04-14T09:02:22.097Z,99.99
2019-04-14T09:03:22.072Z,99.99
2019-04-14T09:04:22.055Z,99.99
2019-04-14T09:05:22.032Z,99.99
2019-04-14T09:06:22.014Z,99.99
2019-04-14T09:07:21.984Z,99.99
2019-04-14T09:08:21.966Z,99.99
2019-04-14T09:09:21.944Z,99.99
2019-04-14T09:10:21.954Z,99.99
2019-04-14T09:11:21.905Z,99.99
2019-04-14T09:12:21.886Z,99.99
2019-04-14T09:13:21.858Z,99.99
2019-04-14T09:14:21.836Z,99.99
2019-04-14T09:15:21.812Z,99.99
2019-04-14T09:16:21.791Z,99.99
2019-04-14T09:17:21.775Z,99.99
2019-04-14T09:18:21.750Z,99.99
2019-04-14T09:19:21.737Z,99.99
2019-04-14T09:20:21.709Z,99.99
2019-04-14T09:21:21.696Z,99.99
2019-04-14T09:22:21.670Z,99.99
2019-04-14T09:23:21.646Z,99.99
2019-04-14T09:24:21.626Z,99.99
2019-04-14T09:25:21.600Z,99.99
2019-04-14T09:26:21.580Z,99.99
2019-04-14T09:27:21.559Z,99.99
2019-04-14T09:28:21.538Z,99.99
2019-04-14T09:29:21.514Z,99.99
2019-04-14T09:30:21.498Z,99.99
2019-04-14T09:31:21.476Z,99.99
2019-04-14T09:32:21.457Z,99.99
2019-04-14T09:33:21.431Z,99.99
2019-04-14T09:34:21.415Z,99.99
2019-04-14T09:35:21.394Z,99.99
2019-04-14T09:36:21.363Z,99.99
2019-04-14T09:37:21.346Z,99.99
2019-04-14T09:38:21.324Z,99.99
2019-04-14T09:39:21.302Z,99.99
2019-04-14T09:40:21.282Z,99.99
2019-04-14T09:41:21.264Z,99.99
2019-04-14T09:42:21.246Z,99.99
2019-04-14T09:43:21.221Z,99.99
2019-04-14T09:44:21.197Z,99.99
2019-04-14T09:45:21.180Z,99.99
2019-04-14T09:46:21.153Z,99.99
2019-04-14T09:47:21.137Z,99.99
2019-04-14T09:48:21.115Z,99.99
2019-04-14T09:49:21.089Z,99.99
2019-04-14T09:50:21.068Z,99.99
2019-04-14T09:51:21.058Z,99.99
2019-04-14T09:52:21.027Z,99.99
2019-04-14T09:53:21.006Z,99.99
2019-04-14T09:54:20.986Z,99.99
2019-04-14T09:55:23.404Z,99.99
2019-04-14T09:56:20.948Z,99.99
2019-04-14T09:57:20.924Z,99.99
2019-04-14T09:58:20.903Z,99.99
2019-04-14T09:59:20.886Z,99.99
2019-04-14T10:00:20.862Z,99.99
2019-04-14T10:01:20.837Z,99.99
2019-04-14T10:02:20.813Z,99.99
2019-04-14T10:03:20.808Z,99.99
2019-04-14T10:04:20.777Z,99.99
2019-04-14T10:05:20.752Z,99.99
2019-04-14T10:06:20.731Z,99.99
2019-04-14T10:07:20.707Z,99.99
2019-04-14T10:08:20.690Z,99.99
2019-04-14T10:09:20.676Z,99.99
2019-04-14T10:10:20.647Z,99.99
2019-04-14T10:11:20.619Z,99.99
2019-04-14T10:12:20.604Z,99.99
2019-04-14T10:13:20.582Z,99.99
2019-04-14T10:14:20.561Z,99.99
2019-04-14T10:15:20.539Z,99.99
2019-04-14T10:16:20.517Z,99.99
2019-04-14T10:17:20.497Z,99.99
2019-04-14T10:18:20.485Z,99.99
2019-04-14T10:19:20.451Z,99.99
2019-04-14T10:20:20.430Z,99.99
2019-04-14T10:21:20.412Z,99.99
2019-04-14T10:22:20.389Z,99.99
2019-04-14T10:23:20.367Z,99.99
2019-04-14T10:24:20.350Z,99.99
2019-04-14T10:25:20.320Z,99.99
2019-04-14T10:26:20.308Z,99.99
2019-04-14T10:27:20.283Z,99.99
2019-04-14T10:28:20.263Z,99.99
2019-04-14T10:29:20.255Z,99.99
2019-04-14T10:30:20.219Z,99.99
2019-04-14T10:31:20.197Z,99.99
2019-04-14T10:32:20.184Z,99.99
2019-04-14T10:33:20.157Z,99.99
2019-04-14T10:34:20.136Z,99.99
2019-04-14T10:35:20.114Z,99.99
2019-04-14T10:36:20.094Z,99.99
2019-04-14T10:37:20.073Z,99.99
2019-04-14T10:38:20.055Z,99.99
2019-04-14T10:39:20.033Z,99.99
2019-04-14T10:40:20.010Z,99.99
2019-04-14T10:41:19.986Z,99.99
2019-04-14T10:42:19.969Z,99.99
2019-04-14T10:43:19.949Z,99.99
2019-04-14T10:44:19.923Z,99.99
2019-04-14T10:45:19.912Z,99.99
2019-04-14T10:46:19.885Z,99.99
2019-04-14T10:47:19.862Z,99.99
2019-04-14T10:48:19.839Z,99.99
2019-04-14T10:49:19.823Z,99.99
2019-04-14T10:50:30.242Z,99.99
2019-04-14T10:51:29.500Z,99.99
2019-04-14T10:52:19.766Z,99.99
2019-04-14T10:53:19.747Z,99.99
2019-04-14T10:54:19.713Z,99.99
2019-04-14T10:55:19.694Z,99.99
2019-04-14T10:56:19.669Z,99.99
2019-04-14T10:57:19.649Z,99.99
2019-04-14T10:58:19.630Z,99.99
2019-04-14T10:59:19.607Z,99.99
2019-04-14T11:00:19.585Z,99.99
2019-04-14T11:01:19.566Z,99.99
2019-04-14T11:02:19.550Z,99.99
2019-04-14T11:03:19.531Z,99.99
2019-04-14T11:04:19.509Z,99.99
2019-04-14T11:05:19.480Z,99.99
2019-04-14T11:06:19.462Z,99.99
2019-04-14T11:07:19.441Z,99.99
2019-04-14T11:08:19.418Z,99.99
2019-04-14T11:09:19.396Z,99.99
2019-04-14T11:10:19.378Z,99.99
2019-04-14T11:11:19.351Z,99.99
2019-04-14T11:12:19.338Z,99.99
2019-04-14T11:13:19.314Z,99.99
2019-04-14T11:14:19.293Z,99.99
2019-04-14T11:15:19.270Z,99.99
2019-04-14T11:16:19.254Z,99.99
2019-04-14T11:17:19.229Z,99.99
2019-04-14T11:18:19.208Z,99.99
2019-04-14T11:19:19.184Z,99.99
2019-04-14T11:20:19.162Z,99.99
2019-04-14T11:21:19.146Z,99.99
2019-04-14T11:22:19.122Z,99.99
2019-04-14T11:23:19.104Z,99.99
2019-04-14T11:24:19.085Z,99.99
2019-04-14T11:25:19.074Z,99.99
2019-04-14T11:26:19.042Z,99.99
2019-04-14T11:27:19.021Z,99.99
2019-04-14T11:28:19.000Z,99.99
2019-04-14T11:29:18.982Z,99.99
2019-04-14T11:30:18.960Z,99.99
2019-04-14T11:31:18.936Z,99.99
2019-04-14T11:32:18.920Z,99.99
2019-04-14T11:33:18.898Z,99.99
2019-04-14T11:34:18.881Z,99.99
2019-04-14T11:35:18.867Z,99.99
2019-04-14T11:36:18.840Z,99.99
2019-04-14T11:37:18.825Z,99.99
2019-04-14T11:38:18.810Z,99.99
2019-04-14T11:39:18.773Z,99.99
2019-04-14T11:40:18.750Z,99.99
2019-04-14T11:41:18.766Z,99.99
2019-04-14T11:42:18.725Z,99.99
2019-04-14T11:43:18.695Z,99.99
2019-04-14T11:44:18.676Z,99.99
2019-04-14T11:45:18.647Z,99.99
2019-04-14T11:46:18.626Z,99.99
2019-04-14T11:47:18.622Z,99.99
2019-04-14T11:48:18.589Z,99.99
2019-04-14T11:49:18.564Z,99.99
2019-04-14T11:50:18.547Z,99.99
2019-04-14T11:51:18.582Z,99.99
2019-04-14T11:52:18.505Z,99.99
2019-04-14T11:53:18.512Z,99.99
2019-04-14T11:54:18.472Z,99.99
2019-04-14T11:55:18.446Z,99.99
2019-04-14T11:56:18.425Z,99.99
2019-04-14T11:57:18.417Z,99.99
2019-04-14T11:58:18.384Z,99.99
2019-04-14T11:59:18.370Z,99.99
2019-04-14T12:00:18.354Z,99.99
2019-04-14T12:01:18.326Z,99.99
2019-04-14T12:02:18.310Z,99.99
2019-04-14T12:03:18.285Z,99.99
2019-04-14T12:04:18.269Z,99.99
2019-04-14T12:05:18.267Z,99.99
2019-04-14T12:06:18.226Z,99.99
2019-04-14T12:07:18.207Z,99.99
2019-04-14T12:08:18.191Z,99.99
2019-04-14T12:09:18.171Z,99.99
2019-04-14T12:10:18.148Z,99.99
2019-04-14T12:11:18.130Z,99.99
2019-04-14T12:12:18.107Z,99.99
2019-04-14T12:13:18.088Z,99.99
2019-04-14T12:14:18.075Z,99.93
2019-04-14T12:15:18.052Z,99.99
2019-04-14T12:16:18.032Z,99.74
2019-04-14T12:17:18.010Z,99.99
2019-04-14T12:18:17.997Z,99.99
2019-04-14T12:19:17.970Z,99.99
2019-04-14T12:20:17.954Z,99.99
2019-04-14T12:21:17.934Z,99.60
2019-04-14T12:22:17.916Z,99.32
2019-04-14T12:23:17.924Z,99.69
2019-04-14T12:24:17.879Z,98.08
2019-04-14T12:25:17.860Z,98.18
2019-04-14T12:26:17.835Z,99.51
2019-04-14T12:27:17.814Z,99.69
2019-04-14T12:28:17.801Z,98.36
2019-04-14T12:29:18.819Z,97.75
2019-04-14T12:30:18.089Z,97.99
2019-04-14T12:31:17.751Z,97.84
2019-04-14T12:32:17.728Z,96.80
2019-04-14T12:33:17.712Z,97.94
2019-04-14T12:34:18.387Z,96.70
2019-04-14T12:35:17.671Z,96.51
2019-04-14T12:36:17.651Z,97.36
2019-04-14T12:37:17.635Z,96.98
2019-04-14T12:38:17.613Z,95.94
2019-04-14T12:39:17.599Z,96.32
2019-04-14T12:40:17.581Z,95.56
2019-04-14T12:41:17.740Z,94.89
2019-04-14T12:42:17.540Z,94.79
2019-04-14T12:43:17.523Z,95.08
2019-04-14T12:44:17.506Z,95.46
2019-04-14T12:45:17.483Z,95.08
2019-04-14T12:46:17.482Z,94.60
2019-04-14T12:47:17.449Z,94.70
2019-04-14T12:48:17.427Z,95.75
2019-04-14T12:49:17.412Z,95.65
2019-04-14T12:50:17.402Z,95.98
2019-04-14T12:51:20.361Z,95.22
2019-04-14T12:52:21.406Z,94.08
2019-04-14T12:53:17.338Z,93.51
2019-04-14T12:54:17.326Z,92.36
2019-04-14T12:55:17.311Z,91.41
2019-04-14T12:56:17.285Z,90.64
2019-04-14T12:57:17.276Z,91.22
2019-04-14T12:58:17.256Z,89.89
2019-04-14T12:59:17.230Z,89.89
2019-04-14T13:00:17.210Z,90.84
2019-04-14T13:01:17.203Z,91.69
2019-04-14T13:02:17.177Z,91.22
2019-04-14T13:03:17.162Z,91.69
2019-04-14T13:04:17.144Z,91.41
2019-04-14T13:05:17.134Z,91.31
2019-04-14T13:06:17.118Z,91.03
2019-04-14T13:07:17.099Z,91.50